createdAt,value
2022-08-26T00:02:00.761Z,100663.20
2022-08-26T00:07:00.766Z,100653.40
2022-08-26T00:11:59.646Z,100652.40
2022-08-26T00:16:58.980Z,100650.20
2022-08-26T00:22:00.282Z,100648.00
2022-08-26T00:27:00.526Z,100647.20
2022-08-26T00:31:59.835Z,100650.20
2022-08-26T00:36:59.249Z,100645.20
2022-08-26T00:42:00.852Z,100643.60
2022-08-26T00:47:09.463Z,100640.40
2022-08-26T00:52:13.377Z,100645.40
2022-08-26T00:57:19.896Z,100648.80
2022-08-26T01:02:20.704Z,100646.80
2022-08-26T01:07:21.638Z,100647.60
2022-08-26T01:12:21.970Z,100649.00
2022-08-26T01:17:22.245Z,100647.80
2022-08-26T01:22:28.663Z,100647.40
2022-08-26T01:27:32.628Z,100648.20
2022-08-26T01:32:36.450Z,100649.60
2022-08-26T01:37:42.261Z,100648.60
2022-08-26T01:42:44.195Z,100647.40
2022-08-26T01:47:44.337Z,100642.40
2022-08-26T01:52:54.391Z,100642.40
2022-08-26T01:57:59.415Z,100641.20
2022-08-26T02:03:15.775Z,100644.00
2022-08-26T02:08:19.029Z,100638.00
2022-08-26T02:13:25.557Z,100643.60
2022-08-26T02:18:25.449Z,100648.00
2022-08-26T02:23:25.965Z,100651.40
2022-08-26T02:28:26.803Z,100639.60
2022-08-26T02:33:26.223Z,100641.80
2022-08-26T02:38:27.779Z,100641.60
2022-08-26T02:43:31.772Z,100640.60
2022-08-26T02:48:33.362Z,100635.80
2022-08-26T02:53:35.644Z,100637.40
2022-08-26T02:58:37.902Z,100640.40
2022-08-26T03:03:37.589Z,100644.00
2022-08-26T03:08:38.361Z,100636.20
2022-08-26T03:13:37.362Z,100633.20
2022-08-26T03:18:37.214Z,100630.20
2022-08-26T03:23:38.562Z,100632.60
2022-08-26T03:28:58.301Z,100635.60
2022-08-26T03:33:59.306Z,100628.80
2022-08-26T03:38:58.831Z,100637.20
2022-08-26T03:44:01.531Z,100634.00
2022-08-26T03:49:02.352Z,100628.60
2022-08-26T03:54:04.989Z,100627.60
2022-08-26T03:59:08.269Z,100625.40
2022-08-26T04:04:07.424Z,100627.60
2022-08-26T04:09:11.632Z,100627.00
2022-08-26T04:14:17.594Z,100624.60
2022-08-26T04:19:20.714Z,100627.00
2022-08-26T04:24:22.219Z,100631.00
2022-08-26T04:29:25.843Z,100625.00
2022-08-26T04:34:28.393Z,100621.00
2022-08-26T04:39:29.495Z,100628.20
2022-08-26T04:44:31.783Z,100624.40
2022-08-26T04:49:35.485Z,100621.00
2022-08-26T04:54:35.235Z,100621.80
2022-08-26T04:59:38.975Z,100631.40
2022-08-26T05:04:39.458Z,100623.00
2022-08-26T05:09:40.357Z,100629.80
2022-08-26T05:14:41.589Z,100631.80
2022-08-26T05:19:43.087Z,100634.00
2022-08-26T05:24:43.400Z,100626.20
2022-08-26T05:29:44.397Z,100631.20
2022-08-26T05:34:44.139Z,100631.20
2022-08-26T05:39:51.111Z,100636.20
2022-08-26T05:44:56.209Z,100640.20
2022-08-26T05:49:56.321Z,100640.80
2022-08-26T05:54:55.358Z,100646.60
2022-08-26T06:00:01.633Z,100642.60
2022-08-26T06:05:02.846Z,100647.40
2022-08-26T06:10:30.555Z,100647.80
2022-08-26T06:15:22.063Z,100642.40
2022-08-26T06:20:23.821Z,100643.60
2022-08-26T06:25:40.972Z,100646.80
2022-08-26T06:30:43.395Z,100650.40
2022-08-26T06:35:46.246Z,100645.00
2022-08-26T06:40:49.736Z,100651.40
2022-08-26T06:45:50.075Z,100652.60
2022-08-26T06:50:50.647Z,100650.20
2022-08-26T06:55:51.796Z,100650.40
2022-08-26T07:00:53.116Z,100659.20
2022-08-26T07:05:53.520Z,100654.80
2022-08-26T07:10:52.347Z,100652.60
2022-08-26T07:15:57.379Z,100653.60
2022-08-26T07:20:57.028Z,100651.80
2022-08-26T07:25:55.908Z,100643.00
2022-08-26T07:30:56.308Z,100646.80
2022-08-26T07:35:57.307Z,100645.20
2022-08-26T07:40:56.359Z,100646.60
2022-08-26T07:45:56.000Z,100642.60
2022-08-26T07:50:55.467Z,100643.40
2022-08-26T07:55:59.147Z,100636.20
2022-08-26T08:00:59.451Z,100637.80
2022-08-26T08:05:59.887Z,100634.80
2022-08-26T08:10:59.634Z,100630.80
2022-08-26T08:15:58.601Z,100639.40
2022-08-26T08:21:10.827Z,100632.00
2022-08-26T08:26:17.195Z,100635.20
2022-08-26T08:31:52.415Z,100629.80
2022-08-26T08:36:46.491Z,100623.20
2022-08-26T08:42:13.236Z,100623.20
2022-08-26T08:47:26.877Z,100623.20
2022-08-26T08:52:36.024Z,100619.60
2022-08-26T08:57:55.524Z,100616.00
2022-08-26T09:03:07.391Z,100618.00
2022-08-26T09:08:16.564Z,100612.60
2022-08-26T09:13:26.048Z,100613.20
2022-08-26T09:18:46.185Z,100612.60
2022-08-26T09:23:49.727Z,100613.40
2022-08-26T09:28:56.736Z,100603.60
2022-08-26T09:34:17.535Z,100603.00
2022-08-26T09:39:37.727Z,100602.40
2022-08-26T09:44:52.603Z,100598.60
2022-08-26T09:50:09.683Z,100585.40
2022-08-26T09:55:26.946Z,100581.00
2022-08-26T10:00:38.420Z,100588.40
2022-08-26T10:05:47.749Z,100579.00
2022-08-26T10:10:48.921Z,100583.80
2022-08-26T10:16:05.551Z,100572.80
2022-08-26T10:21:13.958Z,100571.40
2022-08-26T10:26:20.836Z,100569.80
2022-08-26T10:31:40.160Z,100555.40
2022-08-26T10:37:14.845Z,100560.80
2022-08-26T10:42:33.394Z,100562.80
2022-08-26T10:47:44.472Z,100563.20
2022-08-26T10:53:01.299Z,100566.60
2022-08-26T10:58:14.334Z,100560.20
2022-08-26T11:03:40.902Z,100558.00
2022-08-26T11:08:48.934Z,100550.40
2022-08-26T11:14:12.426Z,100555.80
2022-08-26T11:19:14.514Z,100542.60
2022-08-26T11:24:48.369Z,100544.00
2022-08-26T11:30:07.919Z,100537.20
2022-08-26T11:35:10.116Z,100534.00
2022-08-26T11:40:15.819Z,100532.40
2022-08-26T11:45:28.435Z,100528.00
2022-08-26T11:50:31.330Z,100523.40
2022-08-26T11:55:30.365Z,100521.60
2022-08-26T12:00:36.197Z,100519.20
2022-08-26T12:05:43.724Z,100519.20
2022-08-26T12:10:43.532Z,100517.00
2022-08-26T12:15:42.150Z,100508.00
2022-08-26T12:20:54.036Z,100505.60
2022-08-26T12:26:03.279Z,100495.40
2022-08-26T12:31:09.838Z,100495.60
2022-08-26T12:36:10.593Z,100494.20
2022-08-26T12:41:11.132Z,100487.60
2022-08-26T12:46:14.975Z,100480.60
2022-08-26T12:51:26.180Z,100473.80
2022-08-26T12:56:32.723Z,100469.60
2022-08-26T13:01:39.931Z,100466.20
2022-08-26T13:06:41.044Z,100469.00
2022-08-26T13:12:04.101Z,100458.00
2022-08-26T13:17:03.272Z,100456.00
2022-08-26T13:22:05.307Z,100453.20
2022-08-26T13:27:06.042Z,100453.60
2022-08-26T13:32:09.290Z,100451.60
2022-08-26T13:37:09.414Z,100445.60
2022-08-26T13:42:08.661Z,100450.20
2022-08-26T13:47:09.896Z,100441.80
2022-08-26T13:52:08.922Z,100439.00
2022-08-26T13:57:09.431Z,100433.20
2022-08-26T14:02:10.638Z,100436.00
2022-08-26T14:07:09.352Z,100427.40
2022-08-26T14:12:09.578Z,100419.60
2022-08-26T14:17:09.794Z,100417.40
2022-08-26T14:22:09.141Z,100419.60
2022-08-26T14:27:08.621Z,100413.80
2022-08-26T14:32:15.475Z,100412.80
2022-08-26T14:37:15.537Z,100411.20
2022-08-26T14:42:17.539Z,100402.00
2022-08-26T14:47:17.235Z,100391.40
2022-08-26T14:52:16.532Z,100393.00
2022-08-26T14:57:17.813Z,100390.80
2022-08-26T15:02:32.595Z,100394.20
2022-08-26T15:07:32.774Z,100391.80
2022-08-26T15:12:32.609Z,100391.40
2022-08-26T15:17:32.003Z,100386.60
2022-08-26T15:22:31.549Z,100377.60
2022-08-26T15:27:31.361Z,100374.80
2022-08-26T15:32:32.374Z,100372.60
2022-08-26T15:37:33.191Z,100373.60
2022-08-26T15:42:32.476Z,100363.80
2022-08-26T15:47:32.606Z,100358.40
2022-08-26T15:52:51.249Z,100360.60
2022-08-26T15:57:49.592Z,100358.20
2022-08-26T16:02:48.980Z,100356.00
2022-08-26T16:07:47.451Z,100353.60
2022-08-26T16:12:46.949Z,100353.20
2022-08-26T16:17:47.055Z,100354.20
2022-08-26T16:22:46.494Z,100355.00
2022-08-26T16:27:45.801Z,100356.20
2022-08-26T16:32:46.637Z,100353.80
2022-08-26T16:37:47.582Z,100348.80
2022-08-26T16:42:47.207Z,100344.60
2022-08-26T16:47:47.717Z,100344.40
2022-08-26T16:52:47.211Z,100350.20
2022-08-26T16:57:51.708Z,100350.60
2022-08-26T17:02:52.069Z,100354.20
2022-08-26T17:07:51.930Z,100351.00
2022-08-26T17:12:50.899Z,100350.20
2022-08-26T17:17:49.336Z,100351.40
2022-08-26T17:22:52.577Z,100348.80
2022-08-26T17:27:51.449Z,100348.00
2022-08-26T17:32:51.204Z,100351.20
2022-08-26T17:37:50.856Z,100348.40
2022-08-26T17:42:51.341Z,100347.00
2022-08-26T17:47:50.598Z,100348.40
2022-08-26T17:52:49.830Z,100351.20
2022-08-26T17:57:53.424Z,100351.60
2022-08-26T18:02:53.093Z,100353.60
2022-08-26T18:07:52.480Z,100347.00
2022-08-26T18:12:51.607Z,100348.80
2022-08-26T18:17:50.299Z,100351.00
2022-08-26T18:22:50.953Z,100352.60
2022-08-26T18:27:49.790Z,100351.80
2022-08-26T18:32:49.369Z,100352.00
2022-08-26T18:37:49.335Z,100350.00
2022-08-26T18:42:49.284Z,100347.40
2022-08-26T18:47:53.881Z,100352.00
2022-08-26T18:52:54.315Z,100352.40
2022-08-26T18:57:52.927Z,100356.40
2022-08-26T19:02:52.432Z,100357.60
2022-08-26T19:07:56.777Z,100351.80
2022-08-26T19:13:00.097Z,100355.40
2022-08-26T19:18:00.438Z,100353.60
2022-08-26T19:23:02.663Z,100358.20
2022-08-26T19:28:09.505Z,100354.20
2022-08-26T19:33:09.950Z,100354.20
2022-08-26T19:38:10.686Z,100352.20
2022-08-26T19:43:10.273Z,100353.80
2022-08-26T19:48:11.528Z,100360.20
2022-08-26T19:53:11.012Z,100361.40
2022-08-26T19:58:11.766Z,100365.40
2022-08-26T20:03:11.768Z,100367.40
2022-08-26T20:08:21.864Z,100365.00
2022-08-26T20:13:22.175Z,100367.80
2022-08-26T20:18:38.517Z,100370.00
2022-08-26T20:23:37.476Z,100365.80
2022-08-26T20:28:37.294Z,100367.80
2022-08-26T20:33:46.022Z,100369.60
2022-08-26T20:38:46.529Z,100365.40
2022-08-26T20:43:46.295Z,100372.20
2022-08-26T20:48:45.810Z,100384.60
2022-08-26T20:53:45.397Z,100379.60
2022-08-26T20:58:45.050Z,100380.60
2022-08-26T21:03:43.890Z,100379.60
2022-08-26T21:08:43.429Z,100377.60
2022-08-26T21:14:03.748Z,100375.40
2022-08-26T21:19:03.292Z,100378.80
2022-08-26T21:24:03.103Z,100378.80
2022-08-26T21:29:03.956Z,100379.60
2022-08-26T21:34:02.517Z,100379.00
2022-08-26T21:39:04.461Z,100379.40
2022-08-26T21:44:05.955Z,100380.80
2022-08-26T21:49:08.729Z,100378.20
2022-08-26T21:54:11.264Z,100373.40
2022-08-26T21:59:11.225Z,100373.40
2022-08-26T22:04:12.457Z,100371.80
2022-08-26T22:09:12.540Z,100372.20
2022-08-26T22:14:11.884Z,100371.00
2022-08-26T22:19:17.003Z,100371.20
2022-08-26T22:24:16.879Z,100364.40
2022-08-26T22:29:16.268Z,100368.80
2022-08-26T22:34:19.793Z,100370.20
2022-08-26T22:39:21.547Z,100370.00
2022-08-26T22:44:23.013Z,100369.80
2022-08-26T22:49:22.422Z,100373.20
2022-08-26T22:54:22.192Z,100369.40
2022-08-26T22:59:21.404Z,100362.40
2022-08-26T23:04:20.678Z,100358.00
2022-08-26T23:09:21.307Z,100356.20
2022-08-26T23:14:22.220Z,100361.00
2022-08-26T23:19:24.154Z,100356.80
2022-08-26T23:24:22.750Z,100350.60
2022-08-26T23:29:21.083Z,100348.20
2022-08-26T23:34:37.631Z,100347.00
2022-08-26T23:39:37.735Z,100347.20
2022-08-26T23:44:36.896Z,100341.80
2022-08-26T23:49:36.683Z,100341.60
2022-08-26T23:54:37.098Z,100332.40
2022-08-26T23:59:38.000Z,100323.60
